< < Back
Terminal Aerodrome Forecast


Current Version              Previous Versions:   1  2  3  4  5  6  7  8  9  

Terminal Aerodrome Forecast

362
FTUS42 KTAE 250500
TAFVLD
TAF
KVLD 250520Z 2506/2606 00000KT P6SM SKC
     FM251400 36005KT P6SM SKC
     FM260000 00000KT P6SM SKC=

Latest METAR

015
SAUS70 KWBC 250800 RRM
MTRVLD
METAR KVLD 250753Z AUTO 00000KT 6SM HZ CLR 08/06 A3000 RMK AO2 SLP164
T00830056


USA.gov is the U.S. government's official web portal to all federal, state and local government web resources and services.